sensor_id;sensor_type;location;lat;lon;timestamp;pressure;altitude;pressure_sealevel;temperature;humidity
34034;BME280;63481;52.588;22.472;2023-06-10T00:00:30;100203.32;;;17.98;51.44
34034;BME280;63481;52.588;22.472;2023-06-10T00:01:43;100200.63;;;17.99;51.38
34034;BME280;63481;52.588;22.472;2023-06-10T00:02:39;100201.18;;;17.95;51.25
34034;BME280;63481;52.588;22.472;2023-06-10T00:03:32;100199.95;;;17.90;51.47
34034;BME280;63481;52.588;22.472;2023-06-10T00:04:26;100204.85;;;17.93;51.41
34034;BME280;63481;52.588;22.472;2023-06-10T00:05:21;100200.06;;;17.95;51.91
34034;BME280;63481;52.588;22.472;2023-06-10T00:06:13;100198.30;;;17.87;51.75
34034;BME280;63481;52.588;22.472;2023-06-10T00:07:06;100199.64;;;17.85;52.04
34034;BME280;63481;52.588;22.472;2023-06-10T00:08:02;100196.07;;;17.79;51.72
34034;BME280;63481;52.588;22.472;2023-06-10T00:08:59;100196.70;;;17.78;52.10
34034;BME280;63481;52.588;22.472;2023-06-10T00:09:53;100195.90;;;17.73;51.62
34034;BME280;63481;52.588;22.472;2023-06-10T00:10:47;100196.96;;;17.67;51.94
34034;BME280;63481;52.588;22.472;2023-06-10T00:11:41;100195.42;;;17.70;52.29
34034;BME280;63481;52.588;22.472;2023-06-10T00:12:34;100195.33;;;17.65;52.11
34034;BME280;63481;52.588;22.472;2023-06-10T00:13:29;100197.33;;;17.65;52.23
34034;BME280;63481;52.588;22.472;2023-06-10T00:14:22;100201.54;;;17.60;52.80
34034;BME280;63481;52.588;22.472;2023-06-10T00:15:14;100205.27;;;17.58;52.53
34034;BME280;63481;52.588;22.472;2023-06-10T00:16:07;100199.27;;;17.56;52.35
34034;BME280;63481;52.588;22.472;2023-06-10T00:17:00;100199.00;;;17.53;53.03
34034;BME280;63481;52.588;22.472;2023-06-10T00:17:53;100203.11;;;17.50;52.93
34034;BME280;63481;52.588;22.472;2023-06-10T00:18:47;100201.50;;;17.45;52.91
34034;BME280;63481;52.588;22.472;2023-06-10T00:19:41;100201.60;;;17.45;52.97
34034;BME280;63481;52.588;22.472;2023-06-10T00:20:33;100200.69;;;17.40;53.31
34034;BME280;63481;52.588;22.472;2023-06-10T00:21:33;100201.10;;;17.39;53.70
34034;BME280;63481;52.588;22.472;2023-06-10T00:22:30;100204.95;;;17.32;53.65
34034;BME280;63481;52.588;22.472;2023-06-10T00:23:25;100200.52;;;17.27;54.03
34034;BME280;63481;52.588;22.472;2023-06-10T00:24:18;100204.01;;;17.24;53.85
34034;BME280;63481;52.588;22.472;2023-06-10T00:25:11;100206.67;;;17.24;54.27
34034;BME280;63481;52.588;22.472;2023-06-10T00:26:03;100206.68;;;17.19;53.95
34034;BME280;63481;52.588;22.472;2023-06-10T00:26:57;100207.55;;;17.12;54.26
34034;BME280;63481;52.588;22.472;2023-06-10T00:27:49;100209.52;;;17.12;54.48
34034;BME280;63481;52.588;22.472;2023-06-10T00:28:42;100215.62;;;17.06;54.96
34034;BME280;63481;52.588;22.472;2023-06-10T00:29:37;100209.13;;;17.09;54.77
34034;BME280;63481;52.588;22.472;2023-06-10T00:30:31;100211.73;;;17.02;54.79
34034;BME280;63481;52.588;22.472;2023-06-10T00:31:24;100208.94;;;16.98;55.10
34034;BME280;63481;52.588;22.472;2023-06-10T00:32:18;100210.86;;;16.97;55.05
34034;BME280;63481;52.588;22.472;2023-06-10T00:33:11;100209.22;;;17.00;54.69
34034;BME280;63481;52.588;22.472;2023-06-10T00:34:04;100207.79;;;16.97;55.14
34034;BME280;63481;52.588;22.472;2023-06-10T00:34:59;100210.44;;;16.98;55.04
34034;BME280;63481;52.588;22.472;2023-06-10T00:35:52;100205.73;;;16.96;55.63
34034;BME280;63481;52.588;22.472;2023-06-10T00:36:45;100206.39;;;16.82;55.80
34034;BME280;63481;52.588;22.472;2023-06-10T00:37:38;100205.71;;;16.75;55.98
34034;BME280;63481;52.588;22.472;2023-06-10T00:38:31;100205.73;;;16.75;55.78
34034;BME280;63481;52.588;22.472;2023-06-10T00:39:27;100201.87;;;16.71;55.87
34034;BME280;63481;52.588;22.472;2023-06-10T00:40:20;100206.23;;;16.72;56.00
34034;BME280;63481;52.588;22.472;2023-06-10T00:41:12;100203.23;;;16.72;55.80
34034;BME280;63481;52.588;22.472;2023-06-10T00:42:06;100204.46;;;16.72;56.14
34034;BME280;63481;52.588;22.472;2023-06-10T00:42:59;100205.35;;;16.66;56.23
34034;BME280;63481;52.588;22.472;2023-06-10T00:43:52;100204.00;;;16.62;56.54
34034;BME280;63481;52.588;22.472;2023-06-10T00:44:45;100207.13;;;16.63;56.47
34034;BME280;63481;52.588;22.472;2023-06-10T00:45:37;100211.18;;;16.63;56.59
34034;BME280;63481;52.588;22.472;2023-06-10T00:46:30;100209.94;;;16.63;56.44
34034;BME280;63481;52.588;22.472;2023-06-10T00:47:25;100216.41;;;16.61;56.65
34034;BME280;63481;52.588;22.472;2023-06-10T00:48:18;100215.39;;;16.54;56.92
34034;BME280;63481;52.588;22.472;2023-06-10T00:49:12;100218.85;;;16.52;57.22
34034;BME280;63481;52.588;22.472;2023-06-10T00:50:05;100215.12;;;16.57;56.90
34034;BME280;63481;52.588;22.472;2023-06-10T00:50:59;100214.80;;;16.52;57.18
34034;BME280;63481;52.588;22.472;2023-06-10T00:51:52;100216.27;;;16.49;57.21
34034;BME280;63481;52.588;22.472;2023-06-10T00:52:45;100213.46;;;16.46;57.26
34034;BME280;63481;52.588;22.472;2023-06-10T00:53:41;100215.66;;;16.54;57.52
34034;BME280;63481;52.588;22.472;2023-06-10T00:54:33;100215.40;;;16.46;57.32
34034;BME280;63481;52.588;22.472;2023-06-10T00:55:26;100219.30;;;16.48;57.63
34034;BME280;63481;52.588;22.472;2023-06-10T00:56:20;100215.96;;;16.44;57.53
34034;BME280;63481;52.588;22.472;2023-06-10T00:57:13;100220.90;;;16.36;58.00
34034;BME280;63481;52.588;22.472;2023-06-10T00:58:06;100221.20;;;16.35;57.85
34034;BME280;63481;52.588;22.472;2023-06-10T00:58:59;100217.92;;;16.39;57.89
34034;BME280;63481;52.588;22.472;2023-06-10T00:59:53;100218.98;;;16.37;57.91
34034;BME280;63481;52.588;22.472;2023-06-10T01:00:46;100222.83;;;16.36;58.01
34034;BME280;63481;52.588;22.472;2023-06-10T01:01:39;100222.33;;;16.34;58.02
34034;BME280;63481;52.588;22.472;2023-06-10T01:02:32;100222.58;;;16.27;58.19
34034;BME280;63481;52.588;22.472;2023-06-10T01:03:24;100224.96;;;16.26;58.15
34034;BME280;63481;52.588;22.472;2023-06-10T01:04:17;100223.89;;;16.31;58.02
34034;BME280;63481;52.588;22.472;2023-06-10T01:05:12;100225.08;;;16.32;58.01
34034;BME280;63481;52.588;22.472;2023-06-10T01:07:43;100227.00;;;16.19;58.57
34034;BME280;63481;52.588;22.472;2023-06-10T01:10:11;100226.09;;;16.25;58.63
34034;BME280;63481;52.588;22.472;2023-06-10T01:11:08;100228.84;;;16.13;59.17
34034;BME280;63481;52.588;22.472;2023-06-10T01:12:16;100231.20;;;16.06;59.26
34034;BME280;63481;52.588;22.472;2023-06-10T01:13:11;100228.97;;;16.07;59.40
34034;BME280;63481;52.588;22.472;2023-06-10T01:14:04;100228.80;;;16.04;59.56
34034;BME280;63481;52.588;22.472;2023-06-10T01:14:59;100231.42;;;15.98;59.71
34034;BME280;63481;52.588;22.472;2023-06-10T01:15:52;100228.86;;;16.01;59.75
34034;BME280;63481;52.588;22.472;2023-06-10T01:16:44;100226.41;;;15.97;59.61
34034;BME280;63481;52.588;22.472;2023-06-10T01:18:07;100228.70;;;15.99;59.75
34034;BME280;63481;52.588;22.472;2023-06-10T01:19:07;100230.69;;;15.95;59.88
34034;BME280;63481;52.588;22.472;2023-06-10T01:20:00;100231.88;;;15.98;59.91
34034;BME280;63481;52.588;22.472;2023-06-10T01:20:55;100231.36;;;15.97;59.89
34034;BME280;63481;52.588;22.472;2023-06-10T01:21:48;100233.94;;;15.97;59.98
34034;BME280;63481;52.588;22.472;2023-06-10T01:22:43;100232.41;;;15.89;60.03
34034;BME280;63481;52.588;22.472;2023-06-10T01:23:37;100234.97;;;15.89;60.32
34034;BME280;63481;52.588;22.472;2023-06-10T01:24:31;100235.72;;;15.91;60.22
34034;BME280;63481;52.588;22.472;2023-06-10T01:25:27;100236.66;;;15.91;60.31
34034;BME280;63481;52.588;22.472;2023-06-10T01:26:22;100234.52;;;15.79;60.74
34034;BME280;63481;52.588;22.472;2023-06-10T01:27:22;100236.16;;;15.78;60.71
34034;BME280;63481;52.588;22.472;2023-06-10T01:29:26;100239.84;;;15.81;60.70
34034;BME280;63481;52.588;22.472;2023-06-10T01:30:23;100243.19;;;15.71;61.01
34034;BME280;63481;52.588;22.472;2023-06-10T01:31:41;100246.30;;;15.65;61.31
34034;BME280;63481;52.588;22.472;2023-06-10T01:32:45;100244.70;;;15.61;61.67
34034;BME280;63481;52.588;22.472;2023-06-10T01:33:45;100246.35;;;15.57;61.68
34034;BME280;63481;52.588;22.472;2023-06-10T01:34:42;100244.73;;;15.51;61.91
34034;BME280;63481;52.588;22.472;2023-06-10T01:35:36;100244.03;;;15.59;61.64
34034;BME280;63481;52.588;22.472;2023-06-10T01:36:30;100242.17;;;15.55;61.80
34034;BME280;63481;52.588;22.472;2023-06-10T01:37:26;100247.05;;;15.46;62.05
34034;BME280;63481;52.588;22.472;2023-06-10T01:38:20;100247.77;;;15.45;62.24
34034;BME280;63481;52.588;22.472;2023-06-10T01:39:18;100247.95;;;15.50;62.27
34034;BME280;63481;52.588;22.472;2023-06-10T01:40:13;100248.25;;;15.41;62.31
34034;BME280;63481;52.588;22.472;2023-06-10T01:41:06;100245.67;;;15.38;62.62
34034;BME280;63481;52.588;22.472;2023-06-10T01:42:00;100242.09;;;15.41;62.66
34034;BME280;63481;52.588;22.472;2023-06-10T01:42:56;100243.79;;;15.49;62.58
34034;BME280;63481;52.588;22.472;2023-06-10T01:43:49;100246.71;;;15.54;62.58
34034;BME280;63481;52.588;22.472;2023-06-10T01:44:42;100250.40;;;15.53;62.83
34034;BME280;63481;52.588;22.472;2023-06-10T01:45:35;100247.34;;;15.47;62.66
34034;BME280;63481;52.588;22.472;2023-06-10T01:46:28;100249.45;;;15.50;62.80
34034;BME280;63481;52.588;22.472;2023-06-10T01:47:21;100248.10;;;15.41;63.05
34034;BME280;63481;52.588;22.472;2023-06-10T01:48:14;100248.61;;;15.49;62.86
34034;BME280;63481;52.588;22.472;2023-06-10T01:49:08;100245.56;;;15.53;62.66
34034;BME280;63481;52.588;22.472;2023-06-10T01:50:02;100241.78;;;15.54;62.44
34034;BME280;63481;52.588;22.472;2023-06-10T01:50:54;100245.52;;;15.53;62.48
34034;BME280;63481;52.588;22.472;2023-06-10T01:51:48;100243.05;;;15.48;62.55
34034;BME280;63481;52.588;22.472;2023-06-10T01:52:41;100244.45;;;15.46;63.05
34034;BME280;63481;52.588;22.472;2023-06-10T01:53:33;100246.15;;;15.49;62.79
34034;BME280;63481;52.588;22.472;2023-06-10T01:54:26;100245.04;;;15.48;62.90
34034;BME280;63481;52.588;22.472;2023-06-10T01:55:19;100246.02;;;15.51;63.07
34034;BME280;63481;52.588;22.472;2023-06-10T01:56:12;100244.77;;;15.55;62.50
34034;BME280;63481;52.588;22.472;2023-06-10T01:57:10;100247.02;;;15.58;62.86
34034;BME280;63481;52.588;22.472;2023-06-10T01:58:03;100244.04;;;15.63;62.62
34034;BME280;63481;52.588;22.472;2023-06-10T01:58:56;100244.19;;;15.67;62.35
34034;BME280;63481;52.588;22.472;2023-06-10T01:59:51;100244.84;;;15.68;62.35
34034;BME280;63481;52.588;22.472;2023-06-10T02:00:44;100248.59;;;15.64;62.55
34034;BME280;63481;52.588;22.472;2023-06-10T02:01:37;100248.97;;;15.64;62.53
34034;BME280;63481;52.588;22.472;2023-06-10T02:02:29;100251.37;;;15.71;62.45
34034;BME280;63481;52.588;22.472;2023-06-10T02:03:22;100252.86;;;15.73;62.29
34034;BME280;63481;52.588;22.472;2023-06-10T02:04:15;100255.30;;;15.72;62.21
34034;BME280;63481;52.588;22.472;2023-06-10T02:05:08;100250.23;;;15.73;62.32
34034;BME280;63481;52.588;22.472;2023-06-10T02:06:01;100248.83;;;15.73;62.29
34034;BME280;63481;52.588;22.472;2023-06-10T02:06:54;100252.05;;;15.73;62.25
34034;BME280;63481;52.588;22.472;2023-06-10T02:07:48;100255.48;;;15.76;62.24
34034;BME280;63481;52.588;22.472;2023-06-10T02:08:40;100256.16;;;15.78;62.49
34034;BME280;63481;52.588;22.472;2023-06-10T02:09:33;100259.05;;;15.76;62.54
34034;BME280;63481;52.588;22.472;2023-06-10T02:10:27;100259.96;;;15.74;62.39
34034;BME280;63481;52.588;22.472;2023-06-10T02:11:20;100264.30;;;15.73;62.26
34034;BME280;63481;52.588;22.472;2023-06-10T02:12:13;100264.27;;;15.74;62.36
34034;BME280;63481;52.588;22.472;2023-06-10T02:13:05;100267.23;;;15.75;62.47
34034;BME280;63481;52.588;22.472;2023-06-10T02:13:58;100265.25;;;15.75;62.75
34034;BME280;63481;52.588;22.472;2023-06-10T02:14:52;100265.85;;;15.77;62.67
34034;BME280;63481;52.588;22.472;2023-06-10T02:15:44;100266.69;;;15.73;62.71
34034;BME280;63481;52.588;22.472;2023-06-10T02:16:37;100268.77;;;15.67;62.89
34034;BME280;63481;52.588;22.472;2023-06-10T02:17:31;100267.39;;;15.66;62.87
34034;BME280;63481;52.588;22.472;2023-06-10T02:18:24;100267.16;;;15.65;63.11
34034;BME280;63481;52.588;22.472;2023-06-10T02:19:19;100271.50;;;15.67;63.14
34034;BME280;63481;52.588;22.472;2023-06-10T02:20:13;100264.75;;;15.65;63.24
34034;BME280;63481;52.588;22.472;2023-06-10T02:21:07;100268.64;;;15.69;63.05
34034;BME280;63481;52.588;22.472;2023-06-10T02:21:59;100269.39;;;15.69;63.19
34034;BME280;63481;52.588;22.472;2023-06-10T02:22:52;100268.20;;;15.66;63.39
34034;BME280;63481;52.588;22.472;2023-06-10T02:23:45;100272.60;;;15.63;63.35
34034;BME280;63481;52.588;22.472;2023-06-10T02:24:38;100269.34;;;15.61;63.29
34034;BME280;63481;52.588;22.472;2023-06-10T02:25:31;100269.30;;;15.57;63.51
34034;BME280;63481;52.588;22.472;2023-06-10T02:26:23;100276.19;;;15.57;63.29
34034;BME280;63481;52.588;22.472;2023-06-10T02:27:18;100269.79;;;15.59;63.30
34034;BME280;63481;52.588;22.472;2023-06-10T02:28:11;100269.89;;;15.59;63.37
34034;BME280;63481;52.588;22.472;2023-06-10T02:29:04;100268.85;;;15.59;63.53
34034;BME280;63481;52.588;22.472;2023-06-10T02:29:57;100269.63;;;15.62;63.63
34034;BME280;63481;52.588;22.472;2023-06-10T02:30:51;100270.33;;;15.60;63.54
34034;BME280;63481;52.588;22.472;2023-06-10T02:31:44;100265.67;;;15.58;63.68
34034;BME280;63481;52.588;22.472;2023-06-10T02:32:37;100267.04;;;15.59;63.64
34034;BME280;63481;52.588;22.472;2023-06-10T02:33:29;100270.80;;;15.59;63.53
34034;BME280;63481;52.588;22.472;2023-06-10T02:34:22;100272.54;;;15.57;63.59
34034;BME280;63481;52.588;22.472;2023-06-10T02:35:15;100275.27;;;15.59;63.67
34034;BME280;63481;52.588;22.472;2023-06-10T02:36:08;100273.49;;;15.59;63.97
34034;BME280;63481;52.588;22.472;2023-06-10T02:37:00;100273.96;;;15.56;63.80
34034;BME280;63481;52.588;22.472;2023-06-10T02:37:53;100275.09;;;15.53;63.90
34034;BME280;63481;52.588;22.472;2023-06-10T02:38:46;100274.26;;;15.55;63.56
34034;BME280;63481;52.588;22.472;2023-06-10T02:39:39;100275.95;;;15.61;63.60
34034;BME280;63481;52.588;22.472;2023-06-10T02:40:34;100275.92;;;15.57;63.78
34034;BME280;63481;52.588;22.472;2023-06-10T02:41:27;100276.94;;;15.57;63.52
34034;BME280;63481;52.588;22.472;2023-06-10T02:42:20;100275.93;;;15.57;63.54
34034;BME280;63481;52.588;22.472;2023-06-10T02:43:13;100275.55;;;15.55;63.55
34034;BME280;63481;52.588;22.472;2023-06-10T02:44:06;100274.27;;;15.50;63.85
34034;BME280;63481;52.588;22.472;2023-06-10T02:44:59;100277.48;;;15.48;64.01
34034;BME280;63481;52.588;22.472;2023-06-10T02:46:03;100275.09;;;15.44;64.30
34034;BME280;63481;52.588;22.472;2023-06-10T02:46:56;100276.09;;;15.45;64.27
34034;BME280;63481;52.588;22.472;2023-06-10T02:47:48;100277.25;;;15.46;64.34
34034;BME280;63481;52.588;22.472;2023-06-10T02:48:43;100274.77;;;15.44;64.47
34034;BME280;63481;52.588;22.472;2023-06-10T02:49:41;100275.59;;;15.46;64.42
34034;BME280;63481;52.588;22.472;2023-06-10T02:50:35;100277.26;;;15.54;64.28
34034;BME280;63481;52.588;22.472;2023-06-10T02:51:37;100282.94;;;15.50;64.41
34034;BME280;63481;52.588;22.472;2023-06-10T02:52:29;100276.23;;;15.48;64.32
34034;BME280;63481;52.588;22.472;2023-06-10T02:53:23;100276.52;;;15.52;64.18
34034;BME280;63481;52.588;22.472;2023-06-10T02:54:20;100282.52;;;15.54;64.13
34034;BME280;63481;52.588;22.472;2023-06-10T02:55:14;100283.14;;;15.55;64.12
34034;BME280;63481;52.588;22.472;2023-06-10T02:56:08;100284.36;;;15.57;64.17
34034;BME280;63481;52.588;22.472;2023-06-10T02:57:01;100282.59;;;15.57;64.34
34034;BME280;63481;52.588;22.472;2023-06-10T02:57:54;100283.37;;;15.53;64.27
34034;BME280;63481;52.588;22.472;2023-06-10T02:58:47;100285.44;;;15.57;64.28
34034;BME280;63481;52.588;22.472;2023-06-10T02:59:41;100284.04;;;15.65;63.73
34034;BME280;63481;52.588;22.472;2023-06-10T03:00:34;100282.98;;;15.77;63.57
34034;BME280;63481;52.588;22.472;2023-06-10T03:01:28;100283.46;;;15.84;63.24
34034;BME280;63481;52.588;22.472;2023-06-10T03:02:28;100287.27;;;15.97;63.01
34034;BME280;63481;52.588;22.472;2023-06-10T03:03:22;100284.38;;;16.04;62.95
34034;BME280;63481;52.588;22.472;2023-06-10T03:04:22;100290.52;;;15.98;62.67
34034;BME280;63481;52.588;22.472;2023-06-10T03:05:22;100284.27;;;16.07;62.49
34034;BME280;63481;52.588;22.472;2023-06-10T03:06:16;100285.84;;;16.11;62.33
34034;BME280;63481;52.588;22.472;2023-06-10T03:07:09;100286.04;;;16.21;62.02
34034;BME280;63481;52.588;22.472;2023-06-10T03:08:04;100282.71;;;16.22;61.93
34034;BME280;63481;52.588;22.472;2023-06-10T03:08:57;100285.44;;;16.27;61.96
34034;BME280;63481;52.588;22.472;2023-06-10T03:09:50;100285.19;;;16.37;61.86
34034;BME280;63481;52.588;22.472;2023-06-10T03:10:43;100282.18;;;16.50;61.44
34034;BME280;63481;52.588;22.472;2023-06-10T03:11:36;100284.52;;;16.70;60.65
34034;BME280;63481;52.588;22.472;2023-06-10T03:12:29;100285.89;;;16.75;60.45
34034;BME280;63481;52.588;22.472;2023-06-10T03:13:23;100280.48;;;16.79;60.21
34034;BME280;63481;52.588;22.472;2023-06-10T03:14:16;100283.70;;;16.79;60.02
34034;BME280;63481;52.588;22.472;2023-06-10T03:15:09;100280.98;;;16.77;60.33
34034;BME280;63481;52.588;22.472;2023-06-10T03:16:02;100278.48;;;16.80;60.43
34034;BME280;63481;52.588;22.472;2023-06-10T03:16:55;100274.63;;;16.81;60.13
34034;BME280;63481;52.588;22.472;2023-06-10T03:17:49;100277.89;;;16.83;60.46
34034;BME280;63481;52.588;22.472;2023-06-10T03:18:42;100278.39;;;16.81;60.44
34034;BME280;63481;52.588;22.472;2023-06-10T03:19:35;100277.58;;;16.84;60.37
34034;BME280;63481;52.588;22.472;2023-06-10T03:20:30;100278.32;;;16.83;60.20
34034;BME280;63481;52.588;22.472;2023-06-10T03:21:23;100279.09;;;16.84;60.37
34034;BME280;63481;52.588;22.472;2023-06-10T03:22:16;100285.17;;;16.80;60.53
34034;BME280;63481;52.588;22.472;2023-06-10T03:23:21;100280.86;;;16.83;60.32
34034;BME280;63481;52.588;22.472;2023-06-10T03:24:14;100284.14;;;16.83;60.50
34034;BME280;63481;52.588;22.472;2023-06-10T03:25:08;100284.02;;;16.78;60.06
34034;BME280;63481;52.588;22.472;2023-06-10T03:26:06;100289.35;;;16.72;60.61
34034;BME280;63481;52.588;22.472;2023-06-10T03:27:00;100287.97;;;16.70;60.95
34034;BME280;63481;52.588;22.472;2023-06-10T03:27:54;100290.20;;;16.71;60.70
34034;BME280;63481;52.588;22.472;2023-06-10T03:28:47;100290.02;;;16.66;61.14
34034;BME280;63481;52.588;22.472;2023-06-10T03:29:41;100287.32;;;16.62;61.16
34034;BME280;63481;52.588;22.472;2023-06-10T03:30:33;100286.00;;;16.65;60.76
34034;BME280;63481;52.588;22.472;2023-06-10T03:31:27;100289.86;;;16.70;60.92
34034;BME280;63481;52.588;22.472;2023-06-10T03:32:19;100288.63;;;16.61;61.06
34034;BME280;63481;52.588;22.472;2023-06-10T03:33:12;100290.13;;;16.53;61.10
34034;BME280;63481;52.588;22.472;2023-06-10T03:34:06;100290.87;;;16.56;61.21
34034;BME280;63481;52.588;22.472;2023-06-10T03:34:59;100289.95;;;16.55;61.73
34034;BME280;63481;52.588;22.472;2023-06-10T03:35:53;100286.84;;;16.59;61.18
34034;BME280;63481;52.588;22.472;2023-06-10T03:36:46;100288.45;;;16.51;61.07
34034;BME280;63481;52.588;22.472;2023-06-10T03:37:39;100289.77;;;16.40;61.38
34034;BME280;63481;52.588;22.472;2023-06-10T03:38:32;100287.44;;;16.45;61.90
34034;BME280;63481;52.588;22.472;2023-06-10T03:39:25;100289.52;;;16.38;62.00
34034;BME280;63481;52.588;22.472;2023-06-10T03:40:21;100292.87;;;16.35;61.79
34034;BME280;63481;52.588;22.472;2023-06-10T03:41:14;100291.64;;;16.31;61.90
34034;BME280;63481;52.588;22.472;2023-06-10T03:42:07;100294.07;;;16.28;61.96
34034;BME280;63481;52.588;22.472;2023-06-10T03:43:00;100293.14;;;16.20;62.15
34034;BME280;63481;52.588;22.472;2023-06-10T03:43:53;100294.85;;;16.26;62.31
34034;BME280;63481;52.588;22.472;2023-06-10T03:44:46;100293.33;;;16.17;62.44
34034;BME280;63481;52.588;22.472;2023-06-10T03:45:39;100300.48;;;16.14;62.29
34034;BME280;63481;52.588;22.472;2023-06-10T03:46:33;100301.00;;;16.01;63.00
34034;BME280;63481;52.588;22.472;2023-06-10T03:47:26;100302.13;;;15.93;63.23
34034;BME280;63481;52.588;22.472;2023-06-10T03:48:19;100302.41;;;15.88;63.54
34034;BME280;63481;52.588;22.472;2023-06-10T03:49:15;100301.51;;;15.85;63.34
34034;BME280;63481;52.588;22.472;2023-06-10T03:50:09;100301.41;;;15.86;63.36
34034;BME280;63481;52.588;22.472;2023-06-10T03:51:02;100304.20;;;15.89;63.39
34034;BME280;63481;52.588;22.472;2023-06-10T03:51:55;100301.55;;;15.87;63.44
34034;BME280;63481;52.588;22.472;2023-06-10T03:52:48;100298.79;;;15.87;63.44
34034;BME280;63481;52.588;22.472;2023-06-10T03:53:41;100297.70;;;15.86;63.72
34034;BME280;63481;52.588;22.472;2023-06-10T03:54:34;100302.30;;;15.80;63.78
34034;BME280;63481;52.588;22.472;2023-06-10T03:55:27;100300.12;;;15.75;63.92
34034;BME280;63481;52.588;22.472;2023-06-10T03:56:20;100302.70;;;15.70;63.98
34034;BME280;63481;52.588;22.472;2023-06-10T03:57:13;100297.53;;;15.62;64.46
34034;BME280;63481;52.588;22.472;2023-06-10T03:58:06;100300.02;;;15.70;64.38
34034;BME280;63481;52.588;22.472;2023-06-10T03:58:59;100294.81;;;15.63;63.99
34034;BME280;63481;52.588;22.472;2023-06-10T03:59:51;100295.55;;;15.65;64.71
34034;BME280;63481;52.588;22.472;2023-06-10T04:00:45;100292.98;;;15.66;64.27
34034;BME280;63481;52.588;22.472;2023-06-10T04:01:39;100296.96;;;15.66;64.12
34034;BME280;63481;52.588;22.472;2023-06-10T04:02:33;100294.94;;;15.72;64.39
34034;BME280;63481;52.588;22.472;2023-06-10T04:03:27;100295.58;;;15.79;63.97
34034;BME280;63481;52.588;22.472;2023-06-10T04:04:20;100295.71;;;15.84;63.33
34034;BME280;63481;52.588;22.472;2023-06-10T04:05:13;100295.50;;;15.89;63.28
34034;BME280;63481;52.588;22.472;2023-06-10T04:06:07;100296.90;;;15.92;63.42
34034;BME280;63481;52.588;22.472;2023-06-10T04:07:00;100293.64;;;15.96;63.12
34034;BME280;63481;52.588;22.472;2023-06-10T04:07:53;100296.09;;;16.00;63.64
34034;BME280;63481;52.588;22.472;2023-06-10T04:08:45;100291.59;;;16.13;62.77
34034;BME280;63481;52.588;22.472;2023-06-10T04:09:39;100293.66;;;16.29;62.35
34034;BME280;63481;52.588;22.472;2023-06-10T04:10:32;100291.72;;;16.38;62.76
34034;BME280;63481;52.588;22.472;2023-06-10T04:11:26;100291.64;;;16.45;62.36
34034;BME280;63481;52.588;22.472;2023-06-10T04:12:19;100292.78;;;16.54;62.32
34034;BME280;63481;52.588;22.472;2023-06-10T04:13:12;100292.64;;;16.61;61.75
34034;BME280;63481;52.588;22.472;2023-06-10T04:14:11;100292.95;;;16.65;61.32
34034;BME280;63481;52.588;22.472;2023-06-10T04:15:04;100296.10;;;16.62;61.47
34034;BME280;63481;52.588;22.472;2023-06-10T04:15:58;100298.36;;;16.59;61.36
34034;BME280;63481;52.588;22.472;2023-06-10T04:16:51;100296.89;;;16.71;61.22
34034;BME280;63481;52.588;22.472;2023-06-10T04:17:44;100297.16;;;16.62;61.16
34034;BME280;63481;52.588;22.472;2023-06-10T04:18:37;100297.49;;;16.56;60.96
34034;BME280;63481;52.588;22.472;2023-06-10T04:19:32;100300.86;;;16.57;61.47
34034;BME280;63481;52.588;22.472;2023-06-10T04:20:25;100299.48;;;16.51;61.28
34034;BME280;63481;52.588;22.472;2023-06-10T04:21:19;100304.86;;;16.41;61.64
34034;BME280;63481;52.588;22.472;2023-06-10T04:22:11;100302.87;;;16.32;62.60
34034;BME280;63481;52.588;22.472;2023-06-10T04:23:04;100302.73;;;16.28;62.38
34034;BME280;63481;52.588;22.472;2023-06-10T04:23:57;100307.08;;;16.33;62.39
34034;BME280;63481;52.588;22.472;2023-06-10T04:24:50;100303.96;;;16.36;61.95
34034;BME280;63481;52.588;22.472;2023-06-10T04:25:44;100306.73;;;16.43;61.92
34034;BME280;63481;52.588;22.472;2023-06-10T04:26:37;100301.87;;;16.33;61.73
34034;BME280;63481;52.588;22.472;2023-06-10T04:27:30;100301.79;;;16.38;62.08
34034;BME280;63481;52.588;22.472;2023-06-10T04:28:23;100293.80;;;16.50;62.04
34034;BME280;63481;52.588;22.472;2023-06-10T04:29:17;100302.90;;;16.46;61.65
34034;BME280;63481;52.588;22.472;2023-06-10T04:30:10;100299.30;;;16.33;61.42
34034;BME280;63481;52.588;22.472;2023-06-10T04:31:04;100306.76;;;16.36;62.38
34034;BME280;63481;52.588;22.472;2023-06-10T04:31:58;100300.29;;;16.38;61.51
34034;BME280;63481;52.588;22.472;2023-06-10T04:32:50;100303.00;;;16.43;61.54
34034;BME280;63481;52.588;22.472;2023-06-10T04:33:44;100304.19;;;16.43;61.43
34034;BME280;63481;52.588;22.472;2023-06-10T04:34:37;100308.52;;;16.41;61.40
34034;BME280;63481;52.588;22.472;2023-06-10T04:35:31;100302.19;;;16.40;61.52
34034;BME280;63481;52.588;22.472;2023-06-10T04:36:25;100302.80;;;16.35;61.51
34034;BME280;63481;52.588;22.472;2023-06-10T04:37:18;100304.33;;;16.23;61.29
34034;BME280;63481;52.588;22.472;2023-06-10T04:38:11;100305.11;;;16.19;61.99
34034;BME280;63481;52.588;22.472;2023-06-10T04:39:04;100303.34;;;16.23;61.85
34034;BME280;63481;52.588;22.472;2023-06-10T04:39:59;100307.37;;;16.26;62.19
34034;BME280;63481;52.588;22.472;2023-06-10T04:40:52;100310.88;;;16.20;61.78
34034;BME280;63481;52.588;22.472;2023-06-10T04:41:46;100313.95;;;16.18;62.08
34034;BME280;63481;52.588;22.472;2023-06-10T04:42:39;100312.90;;;16.21;62.28
34034;BME280;63481;52.588;22.472;2023-06-10T04:43:32;100310.02;;;16.26;62.97